sensor_id;sensor_type;location;lat;lon;timestamp;P1;durP1;ratioP1;P2;durP2;ratioP2
65018;SDS011;66069;51.164;-114.452;2024-01-30T00:00:05;10.98;;;6.20;;
65018;SDS011;66069;51.164;-114.452;2024-01-30T00:02:32;11.73;;;6.35;;
65018;SDS011;66069;51.164;-114.452;2024-01-30T00:04:58;12.88;;;6.60;;
65018;SDS011;66069;51.164;-114.452;2024-01-30T00:07:24;10.90;;;5.97;;
65018;SDS011;66069;51.164;-114.452;2024-01-30T00:09:51;12.65;;;6.57;;
65018;SDS011;66069;51.164;-114.452;2024-01-30T00:12:17;10.55;;;5.45;;
65018;SDS011;66069;51.164;-114.452;2024-01-30T00:14:43;14.52;;;6.80;;
65018;SDS011;66069;51.164;-114.452;2024-01-30T00:17:09;12.70;;;5.82;;
65018;SDS011;66069;51.164;-114.452;2024-01-30T00:19:35;12.13;;;6.15;;
65018;SDS011;66069;51.164;-114.452;2024-01-30T00:22:02;10.07;;;5.60;;
65018;SDS011;66069;51.164;-114.452;2024-01-30T00:24:28;11.00;;;5.80;;
65018;SDS011;66069;51.164;-114.452;2024-01-30T00:26:54;11.75;;;6.03;;
65018;SDS011;66069;51.164;-114.452;2024-01-30T00:29:21;12.25;;;6.10;;
65018;SDS011;66069;51.164;-114.452;2024-01-30T00:31:48;9.98;;;5.45;;
65018;SDS011;66069;51.164;-114.452;2024-01-30T00:34:14;12.38;;;6.00;;
65018;SDS011;66069;51.164;-114.452;2024-01-30T00:36:40;11.30;;;5.97;;
65018;SDS011;66069;51.164;-114.452;2024-01-30T00:39:06;10.82;;;5.95;;
65018;SDS011;66069;51.164;-114.452;2024-01-30T00:41:34;9.10;;;4.88;;
65018;SDS011;66069;51.164;-114.452;2024-01-30T00:44:01;10.15;;;6.05;;
65018;SDS011;66069;51.164;-114.452;2024-01-30T00:46:27;9.73;;;5.50;;
65018;SDS011;66069;51.164;-114.452;2024-01-30T00:48:55;10.68;;;5.70;;
65018;SDS011;66069;51.164;-114.452;2024-01-30T00:51:23;12.88;;;5.85;;
65018;SDS011;66069;51.164;-114.452;2024-01-30T00:53:55;11.13;;;5.82;;
65018;SDS011;66069;51.164;-114.452;2024-01-30T00:56:21;8.18;;;5.05;;
65018;SDS011;66069;51.164;-114.452;2024-01-30T00:58:48;11.70;;;5.97;;
65018;SDS011;66069;51.164;-114.452;2024-01-30T01:01:14;9.52;;;5.03;;
65018;SDS011;66069;51.164;-114.452;2024-01-30T01:03:40;11.07;;;5.30;;
65018;SDS011;66069;51.164;-114.452;2024-01-30T01:06:08;9.73;;;5.07;;
65018;SDS011;66069;51.164;-114.452;2024-01-30T01:08:35;9.43;;;5.28;;
65018;SDS011;66069;51.164;-114.452;2024-01-30T01:11:02;9.52;;;5.05;;
65018;SDS011;66069;51.164;-114.452;2024-01-30T01:13:28;9.82;;;4.93;;
65018;SDS011;66069;51.164;-114.452;2024-01-30T01:15:55;10.25;;;5.03;;
65018;SDS011;66069;51.164;-114.452;2024-01-30T01:18:21;9.05;;;4.75;;
65018;SDS011;66069;51.164;-114.452;2024-01-30T01:20:47;10.63;;;5.68;;
65018;SDS011;66069;51.164;-114.452;2024-01-30T01:23:13;10.60;;;5.38;;
65018;SDS011;66069;51.164;-114.452;2024-01-30T01:25:40;10.68;;;4.65;;
65018;SDS011;66069;51.164;-114.452;2024-01-30T01:28:06;10.05;;;5.38;;
65018;SDS011;66069;51.164;-114.452;2024-01-30T01:30:32;10.07;;;5.50;;
65018;SDS011;66069;51.164;-114.452;2024-01-30T01:32:58;9.77;;;5.05;;
65018;SDS011;66069;51.164;-114.452;2024-01-30T01:35:27;11.40;;;5.63;;
65018;SDS011;66069;51.164;-114.452;2024-01-30T01:37:53;8.98;;;5.05;;
65018;SDS011;66069;51.164;-114.452;2024-01-30T01:40:21;8.68;;;4.93;;
65018;SDS011;66069;51.164;-114.452;2024-01-30T01:42:51;10.45;;;4.80;;
65018;SDS011;66069;51.164;-114.452;2024-01-30T01:45:18;9.88;;;5.43;;
65018;SDS011;66069;51.164;-114.452;2024-01-30T01:47:45;8.65;;;4.80;;
65018;SDS011;66069;51.164;-114.452;2024-01-30T01:50:16;11.18;;;5.18;;
65018;SDS011;66069;51.164;-114.452;2024-01-30T01:52:44;10.13;;;5.35;;
65018;SDS011;66069;51.164;-114.452;2024-01-30T01:55:13;9.85;;;4.78;;
65018;SDS011;66069;51.164;-114.452;2024-01-30T01:57:46;9.98;;;5.38;;
65018;SDS011;66069;51.164;-114.452;2024-01-30T02:00:13;9.15;;;4.72;;
65018;SDS011;66069;51.164;-114.452;2024-01-30T02:02:41;9.18;;;5.15;;
65018;SDS011;66069;51.164;-114.452;2024-01-30T02:05:09;10.13;;;5.15;;
65018;SDS011;66069;51.164;-114.452;2024-01-30T02:07:35;9.15;;;4.55;;
65018;SDS011;66069;51.164;-114.452;2024-01-30T02:10:01;8.52;;;4.40;;
65018;SDS011;66069;51.164;-114.452;2024-01-30T02:12:29;8.32;;;3.95;;
65018;SDS011;66069;51.164;-114.452;2024-01-30T02:14:55;9.27;;;4.80;;
65018;SDS011;66069;51.164;-114.452;2024-01-30T02:17:21;9.70;;;4.60;;
65018;SDS011;66069;51.164;-114.452;2024-01-30T02:19:48;10.35;;;5.38;;
65018;SDS011;66069;51.164;-114.452;2024-01-30T02:22:15;7.78;;;4.32;;
65018;SDS011;66069;51.164;-114.452;2024-01-30T02:24:41;8.32;;;4.35;;
65018;SDS011;66069;51.164;-114.452;2024-01-30T02:27:07;8.20;;;4.28;;
65018;SDS011;66069;51.164;-114.452;2024-01-30T02:29:34;8.23;;;4.68;;
65018;SDS011;66069;51.164;-114.452;2024-01-30T02:32:00;10.23;;;5.05;;
65018;SDS011;66069;51.164;-114.452;2024-01-30T02:34:26;8.57;;;4.30;;
65018;SDS011;66069;51.164;-114.452;2024-01-30T02:36:52;7.47;;;3.97;;
65018;SDS011;66069;51.164;-114.452;2024-01-30T02:39:19;9.45;;;4.88;;
65018;SDS011;66069;51.164;-114.452;2024-01-30T02:41:45;9.15;;;4.72;;
65018;SDS011;66069;51.164;-114.452;2024-01-30T02:44:11;9.88;;;4.43;;
65018;SDS011;66069;51.164;-114.452;2024-01-30T02:46:37;9.00;;;4.53;;
65018;SDS011;66069;51.164;-114.452;2024-01-30T02:49:03;8.88;;;4.07;;
65018;SDS011;66069;51.164;-114.452;2024-01-30T02:51:30;6.63;;;3.80;;
65018;SDS011;66069;51.164;-114.452;2024-01-30T02:53:56;8.95;;;4.50;;
65018;SDS011;66069;51.164;-114.452;2024-01-30T02:56:22;7.30;;;4.30;;
65018;SDS011;66069;51.164;-114.452;2024-01-30T02:58:48;8.43;;;4.15;;
65018;SDS011;66069;51.164;-114.452;2024-01-30T03:01:14;8.10;;;4.15;;
65018;SDS011;66069;51.164;-114.452;2024-01-30T03:03:41;9.35;;;4.32;;
65018;SDS011;66069;51.164;-114.452;2024-01-30T03:06:08;9.55;;;4.88;;
65018;SDS011;66069;51.164;-114.452;2024-01-30T03:08:34;9.23;;;4.63;;
65018;SDS011;66069;51.164;-114.452;2024-01-30T03:11:01;9.00;;;4.80;;
65018;SDS011;66069;51.164;-114.452;2024-01-30T03:13:27;6.93;;;4.15;;
65018;SDS011;66069;51.164;-114.452;2024-01-30T03:15:53;7.22;;;3.72;;
65018;SDS011;66069;51.164;-114.452;2024-01-30T03:18:20;7.75;;;4.00;;
65018;SDS011;66069;51.164;-114.452;2024-01-30T03:20:46;9.20;;;4.28;;
65018;SDS011;66069;51.164;-114.452;2024-01-30T03:23:12;5.63;;;3.53;;
65018;SDS011;66069;51.164;-114.452;2024-01-30T03:25:39;6.40;;;3.38;;
65018;SDS011;66069;51.164;-114.452;2024-01-30T03:28:05;6.03;;;3.47;;
65018;SDS011;66069;51.164;-114.452;2024-01-30T03:30:31;7.18;;;3.75;;
65018;SDS011;66069;51.164;-114.452;2024-01-30T03:32:57;8.05;;;3.80;;
65018;SDS011;66069;51.164;-114.452;2024-01-30T03:35:27;6.65;;;3.85;;
65018;SDS011;66069;51.164;-114.452;2024-01-30T03:37:53;6.55;;;3.83;;
65018;SDS011;66069;51.164;-114.452;2024-01-30T03:40:19;7.65;;;3.85;;
65018;SDS011;66069;51.164;-114.452;2024-01-30T03:42:45;6.80;;;3.75;;
65018;SDS011;66069;51.164;-114.452;2024-01-30T03:45:12;6.60;;;3.22;;
65018;SDS011;66069;51.164;-114.452;2024-01-30T03:47:38;6.95;;;3.55;;
65018;SDS011;66069;51.164;-114.452;2024-01-30T03:50:04;7.05;;;3.60;;
65018;SDS011;66069;51.164;-114.452;2024-01-30T03:52:31;6.13;;;3.30;;
65018;SDS011;66069;51.164;-114.452;2024-01-30T03:54:57;6.30;;;3.10;;
65018;SDS011;66069;51.164;-114.452;2024-01-30T03:57:23;6.13;;;3.15;;
65018;SDS011;66069;51.164;-114.452;2024-01-30T03:59:49;6.80;;;3.28;;
65018;SDS011;66069;51.164;-114.452;2024-01-30T04:02:15;6.63;;;3.30;;
65018;SDS011;66069;51.164;-114.452;2024-01-30T04:04:43;7.07;;;3.40;;
65018;SDS011;66069;51.164;-114.452;2024-01-30T04:07:10;6.95;;;3.20;;
65018;SDS011;66069;51.164;-114.452;2024-01-30T04:09:37;6.43;;;3.60;;
65018;SDS011;66069;51.164;-114.452;2024-01-30T04:12:04;5.97;;;3.30;;
65018;SDS011;66069;51.164;-114.452;2024-01-30T04:14:31;6.28;;;3.30;;
65018;SDS011;66069;51.164;-114.452;2024-01-30T04:16:57;6.45;;;3.28;;
65018;SDS011;66069;51.164;-114.452;2024-01-30T04:19:23;7.40;;;3.85;;
65018;SDS011;66069;51.164;-114.452;2024-01-30T04:21:50;7.95;;;3.67;;
65018;SDS011;66069;51.164;-114.452;2024-01-30T04:24:16;5.72;;;2.97;;
65018;SDS011;66069;51.164;-114.452;2024-01-30T04:26:43;6.95;;;3.65;;
65018;SDS011;66069;51.164;-114.452;2024-01-30T04:29:10;6.07;;;3.00;;
65018;SDS011;66069;51.164;-114.452;2024-01-30T04:31:36;6.55;;;3.55;;
65018;SDS011;66069;51.164;-114.452;2024-01-30T04:34:02;6.00;;;3.05;;
65018;SDS011;66069;51.164;-114.452;2024-01-30T04:36:28;7.60;;;3.70;;
65018;SDS011;66069;51.164;-114.452;2024-01-30T04:38:55;6.97;;;3.55;;
65018;SDS011;66069;51.164;-114.452;2024-01-30T04:41:21;6.78;;;3.17;;
65018;SDS011;66069;51.164;-114.452;2024-01-30T04:43:47;6.63;;;3.58;;
65018;SDS011;66069;51.164;-114.452;2024-01-30T04:46:13;6.90;;;3.70;;
65018;SDS011;66069;51.164;-114.452;2024-01-30T04:48:40;5.57;;;2.88;;
65018;SDS011;66069;51.164;-114.452;2024-01-30T04:51:06;6.05;;;3.15;;
65018;SDS011;66069;51.164;-114.452;2024-01-30T04:53:32;6.95;;;2.90;;
65018;SDS011;66069;51.164;-114.452;2024-01-30T04:55:58;6.07;;;3.17;;
65018;SDS011;66069;51.164;-114.452;2024-01-30T04:58:24;5.50;;;3.05;;
65018;SDS011;66069;51.164;-114.452;2024-01-30T05:00:51;7.80;;;3.30;;
65018;SDS011;66069;51.164;-114.452;2024-01-30T05:03:18;6.38;;;3.13;;
65018;SDS011;66069;51.164;-114.452;2024-01-30T05:05:45;5.55;;;3.05;;
65018;SDS011;66069;51.164;-114.452;2024-01-30T05:08:11;6.20;;;3.38;;
65018;SDS011;66069;51.164;-114.452;2024-01-30T05:10:37;5.68;;;3.10;;
65018;SDS011;66069;51.164;-114.452;2024-01-30T05:13:03;5.30;;;3.00;;
65018;SDS011;66069;51.164;-114.452;2024-01-30T05:15:30;6.43;;;2.80;;
65018;SDS011;66069;51.164;-114.452;2024-01-30T05:17:56;6.47;;;3.58;;
65018;SDS011;66069;51.164;-114.452;2024-01-30T05:20:22;5.78;;;3.22;;
65018;SDS011;66069;51.164;-114.452;2024-01-30T05:22:48;6.25;;;3.17;;
65018;SDS011;66069;51.164;-114.452;2024-01-30T05:25:15;5.78;;;2.92;;
65018;SDS011;66069;51.164;-114.452;2024-01-30T05:27:41;5.50;;;2.63;;
65018;SDS011;66069;51.164;-114.452;2024-01-30T05:30:07;6.13;;;3.17;;
65018;SDS011;66069;51.164;-114.452;2024-01-30T05:32:34;6.97;;;3.47;;
65018;SDS011;66069;51.164;-114.452;2024-01-30T05:35:00;5.22;;;3.20;;
65018;SDS011;66069;51.164;-114.452;2024-01-30T05:37:27;5.20;;;2.70;;
65018;SDS011;66069;51.164;-114.452;2024-01-30T05:39:53;5.95;;;3.00;;
65018;SDS011;66069;51.164;-114.452;2024-01-30T05:42:19;6.03;;;2.67;;
65018;SDS011;66069;51.164;-114.452;2024-01-30T05:44:45;6.57;;;3.25;;
65018;SDS011;66069;51.164;-114.452;2024-01-30T05:47:11;4.80;;;2.60;;
65018;SDS011;66069;51.164;-114.452;2024-01-30T05:49:38;4.55;;;2.72;;
65018;SDS011;66069;51.164;-114.452;2024-01-30T05:52:04;4.75;;;2.78;;
65018;SDS011;66069;51.164;-114.452;2024-01-30T05:54:31;6.88;;;3.00;;
65018;SDS011;66069;51.164;-114.452;2024-01-30T05:56:57;4.93;;;2.60;;
65018;SDS011;66069;51.164;-114.452;2024-01-30T05:59:23;5.95;;;3.17;;
65018;SDS011;66069;51.164;-114.452;2024-01-30T06:01:50;4.45;;;2.65;;
65018;SDS011;66069;51.164;-114.452;2024-01-30T06:04:16;5.38;;;3.15;;
65018;SDS011;66069;51.164;-114.452;2024-01-30T06:06:42;5.32;;;2.55;;
65018;SDS011;66069;51.164;-114.452;2024-01-30T06:09:08;4.38;;;2.30;;
65018;SDS011;66069;51.164;-114.452;2024-01-30T06:11:34;5.53;;;3.30;;
65018;SDS011;66069;51.164;-114.452;2024-01-30T06:14:01;5.88;;;3.00;;
65018;SDS011;66069;51.164;-114.452;2024-01-30T06:16:27;5.72;;;2.80;;
65018;SDS011;66069;51.164;-114.452;2024-01-30T06:18:55;4.93;;;2.78;;
65018;SDS011;66069;51.164;-114.452;2024-01-30T06:21:21;5.05;;;2.60;;
65018;SDS011;66069;51.164;-114.452;2024-01-30T06:23:49;5.45;;;2.75;;
65018;SDS011;66069;51.164;-114.452;2024-01-30T06:26:16;5.00;;;2.70;;
65018;SDS011;66069;51.164;-114.452;2024-01-30T06:28:42;4.97;;;2.70;;
65018;SDS011;66069;51.164;-114.452;2024-01-30T06:31:09;4.47;;;2.50;;
65018;SDS011;66069;51.164;-114.452;2024-01-30T06:33:36;5.20;;;2.40;;
65018;SDS011;66069;51.164;-114.452;2024-01-30T06:36:02;6.25;;;2.60;;
65018;SDS011;66069;51.164;-114.452;2024-01-30T06:38:28;4.65;;;2.90;;
65018;SDS011;66069;51.164;-114.452;2024-01-30T06:40:55;5.18;;;2.45;;
65018;SDS011;66069;51.164;-114.452;2024-01-30T06:43:21;5.50;;;2.53;;
65018;SDS011;66069;51.164;-114.452;2024-01-30T06:45:48;5.50;;;3.00;;
65018;SDS011;66069;51.164;-114.452;2024-01-30T06:48:14;4.07;;;2.40;;
65018;SDS011;66069;51.164;-114.452;2024-01-30T06:50:40;5.05;;;2.47;;
65018;SDS011;66069;51.164;-114.452;2024-01-30T06:53:06;4.43;;;2.60;;
65018;SDS011;66069;51.164;-114.452;2024-01-30T06:55:33;3.88;;;2.08;;
65018;SDS011;66069;51.164;-114.452;2024-01-30T06:57:59;5.07;;;2.70;;
65018;SDS011;66069;51.164;-114.452;2024-01-30T07:00:25;4.90;;;2.85;;
65018;SDS011;66069;51.164;-114.452;2024-01-30T07:02:51;4.97;;;2.58;;
65018;SDS011;66069;51.164;-114.452;2024-01-30T07:05:17;4.60;;;2.20;;
65018;SDS011;66069;51.164;-114.452;2024-01-30T07:07:44;4.85;;;2.55;;
65018;SDS011;66069;51.164;-114.452;2024-01-30T07:10:10;4.78;;;2.50;;
65018;SDS011;66069;51.164;-114.452;2024-01-30T07:12:36;6.18;;;2.67;;
65018;SDS011;66069;51.164;-114.452;2024-01-30T07:15:02;4.85;;;2.63;;
65018;SDS011;66069;51.164;-114.452;2024-01-30T07:17:29;5.60;;;2.72;;
65018;SDS011;66069;51.164;-114.452;2024-01-30T07:19:55;4.68;;;2.65;;
65018;SDS011;66069;51.164;-114.452;2024-01-30T07:22:21;4.60;;;2.80;;
65018;SDS011;66069;51.164;-114.452;2024-01-30T07:24:47;6.07;;;3.00;;
65018;SDS011;66069;51.164;-114.452;2024-01-30T07:27:14;5.03;;;2.30;;
65018;SDS011;66069;51.164;-114.452;2024-01-30T07:29:42;4.15;;;2.42;;
65018;SDS011;66069;51.164;-114.452;2024-01-30T07:32:09;4.72;;;2.60;;
65018;SDS011;66069;51.164;-114.452;2024-01-30T07:34:35;5.45;;;2.90;;
65018;SDS011;66069;51.164;-114.452;2024-01-30T07:37:01;4.30;;;2.42;;
65018;SDS011;66069;51.164;-114.452;2024-01-30T07:39:28;3.33;;;1.90;;
65018;SDS011;66069;51.164;-114.452;2024-01-30T07:41:54;4.95;;;2.45;;
65018;SDS011;66069;51.164;-114.452;2024-01-30T07:44:20;5.05;;;2.45;;
65018;SDS011;66069;51.164;-114.452;2024-01-30T07:46:47;4.30;;;2.50;;
65018;SDS011;66069;51.164;-114.452;2024-01-30T07:49:13;5.65;;;2.53;;
65018;SDS011;66069;51.164;-114.452;2024-01-30T07:51:40;5.85;;;2.42;;
65018;SDS011;66069;51.164;-114.452;2024-01-30T07:54:15;5.28;;;2.53;;
65018;SDS011;66069;51.164;-114.452;2024-01-30T08:00:03;4.70;;;1.88;;
65018;SDS011;66069;51.164;-114.452;2024-01-30T08:02:31;5.85;;;2.53;;
65018;SDS011;66069;51.164;-114.452;2024-01-30T08:04:57;4.65;;;2.15;;
65018;SDS011;66069;51.164;-114.452;2024-01-30T08:07:23;4.05;;;2.10;;
65018;SDS011;66069;51.164;-114.452;2024-01-30T08:09:50;4.13;;;1.95;;
65018;SDS011;66069;51.164;-114.452;2024-01-30T08:12:18;4.65;;;2.28;;
65018;SDS011;66069;51.164;-114.452;2024-01-30T08:14:44;5.18;;;2.22;;
65018;SDS011;66069;51.164;-114.452;2024-01-30T08:17:10;4.32;;;1.90;;
65018;SDS011;66069;51.164;-114.452;2024-01-30T08:19:37;3.97;;;2.38;;
65018;SDS011;66069;51.164;-114.452;2024-01-30T08:22:03;4.30;;;2.30;;
65018;SDS011;66069;51.164;-114.452;2024-01-30T08:24:29;5.13;;;2.15;;
65018;SDS011;66069;51.164;-114.452;2024-01-30T08:26:55;4.38;;;2.22;;
65018;SDS011;66069;51.164;-114.452;2024-01-30T08:29:23;4.05;;;2.10;;
65018;SDS011;66069;51.164;-114.452;2024-01-30T08:31:50;5.75;;;2.45;;
65018;SDS011;66069;51.164;-114.452;2024-01-30T08:34:16;4.88;;;2.30;;
65018;SDS011;66069;51.164;-114.452;2024-01-30T08:36:42;5.18;;;2.20;;
65018;SDS011;66069;51.164;-114.452;2024-01-30T08:39:08;4.63;;;2.13;;
65018;SDS011;66069;51.164;-114.452;2024-01-30T08:41:34;4.03;;;2.20;;
65018;SDS011;66069;51.164;-114.452;2024-01-30T08:44:00;4.20;;;2.08;;
65018;SDS011;66069;51.164;-114.452;2024-01-30T08:46:27;4.82;;;2.60;;
65018;SDS011;66069;51.164;-114.452;2024-01-30T08:48:53;4.22;;;2.15;;
65018;SDS011;66069;51.164;-114.452;2024-01-30T08:51:20;4.95;;;2.45;;
65018;SDS011;66069;51.164;-114.452;2024-01-30T08:53:46;3.92;;;1.80;;
65018;SDS011;66069;51.164;-114.452;2024-01-30T08:59:34;3.80;;;1.98;;
65018;SDS011;66069;51.164;-114.452;2024-01-30T09:02:00;4.38;;;2.30;;
65018;SDS011;66069;51.164;-114.452;2024-01-30T09:04:27;3.92;;;1.98;;
65018;SDS011;66069;51.164;-114.452;2024-01-30T09:10:15;4.82;;;2.13;;
65018;SDS011;66069;51.164;-114.452;2024-01-30T09:12:42;3.22;;;1.77;;
65018;SDS011;66069;51.164;-114.452;2024-01-30T09:15:08;3.75;;;1.90;;
65018;SDS011;66069;51.164;-114.452;2024-01-30T09:17:34;4.60;;;2.30;;
65018;SDS011;66069;51.164;-114.452;2024-01-30T09:20:01;4.03;;;2.13;;
65018;SDS011;66069;51.164;-114.452;2024-01-30T09:22:27;4.07;;;2.08;;
65018;SDS011;66069;51.164;-114.452;2024-01-30T09:24:53;4.80;;;2.40;;
65018;SDS011;66069;51.164;-114.452;2024-01-30T09:27:20;4.82;;;1.92;;
65018;SDS011;66069;51.164;-114.452;2024-01-30T09:29:46;3.08;;;1.63;;
65018;SDS011;66069;51.164;-114.452;2024-01-30T09:32:12;3.80;;;1.83;;
65018;SDS011;66069;51.164;-114.452;2024-01-30T09:34:38;4.05;;;2.08;;
65018;SDS011;66069;51.164;-114.452;2024-01-30T09:37:05;3.70;;;1.95;;
65018;SDS011;66069;51.164;-114.452;2024-01-30T09:39:31;4.13;;;2.20;;
65018;SDS011;66069;51.164;-114.452;2024-01-30T09:42:11;4.50;;;2.05;;
65018;SDS011;66069;51.164;-114.452;2024-01-30T09:44:52;3.83;;;2.10;;
65018;SDS011;66069;51.164;-114.452;2024-01-30T09:47:19;3.70;;;1.85;;
65018;SDS011;66069;51.164;-114.452;2024-01-30T09:49:46;4.55;;;2.08;;
65018;SDS011;66069;51.164;-114.452;2024-01-30T09:52:13;4.55;;;1.80;;
65018;SDS011;66069;51.164;-114.452;2024-01-30T09:54:40;4.15;;;2.30;;
65018;SDS011;66069;51.164;-114.452;2024-01-30T09:57:07;4.47;;;1.95;;
65018;SDS011;66069;51.164;-114.452;2024-01-30T09:59:34;3.50;;;1.77;;
65018;SDS011;66069;51.164;-114.452;2024-01-30T10:02:01;4.30;;;1.75;;
65018;SDS011;66069;51.164;-114.452;2024-01-30T10:04:29;2.97;;;1.55;;
65018;SDS011;66069;51.164;-114.452;2024-01-30T10:06:56;3.28;;;1.77;;
65018;SDS011;66069;51.164;-114.452;2024-01-30T10:09:24;3.83;;;1.83;;
65018;SDS011;66069;51.164;-114.452;2024-01-30T10:11:50;3.67;;;1.70;;
65018;SDS011;66069;51.164;-114.452;2024-01-30T10:14:17;3.38;;;1.77;;
65018;SDS011;66069;51.164;-114.452;2024-01-30T10:16:45;3.60;;;1.73;;
65018;SDS011;66069;51.164;-114.452;2024-01-30T10:19:12;3.83;;;2.10;;
65018;SDS011;66069;51.164;-114.452;2024-01-30T10:21:38;3.72;;;1.90;;
65018;SDS011;66069;51.164;-114.452;2024-01-30T10:24:05;4.10;;;1.83;;
65018;SDS011;66069;51.164;-114.452;2024-01-30T10:26:31;3.10;;;1.58;;
65018;SDS011;66069;51.164;-114.452;2024-01-30T10:28:59;3.40;;;1.85;;
65018;SDS011;66069;51.164;-114.452;2024-01-30T10:31:25;3.35;;;1.60;;
65018;SDS011;66069;51.164;-114.452;2024-01-30T10:33:51;2.92;;;1.55;;
65018;SDS011;66069;51.164;-114.452;2024-01-30T10:36:18;3.72;;;1.50;;
65018;SDS011;66069;51.164;-114.452;2024-01-30T10:38:47;3.65;;;1.50;;
65018;SDS011;66069;51.164;-114.452;2024-01-30T10:41:17;3.60;;;1.70;;
65018;SDS011;66069;51.164;-114.452;2024-01-30T10:43:55;3.65;;;1.65;;
65018;SDS011;66069;51.164;-114.452;2024-01-30T10:46:29;3.55;;;1.73;;
65018;SDS011;66069;51.164;-114.452;2024-01-30T10:48:59;3.88;;;1.55;;
65018;SDS011;66069;51.164;-114.452;2024-01-30T10:51:27;3.10;;;1.70;;
65018;SDS011;66069;51.164;-114.452;2024-01-30T10:53:53;3.55;;;1.65;;
65018;SDS011;66069;51.164;-114.452;2024-01-30T10:56:22;3.50;;;1.75;;
65018;SDS011;66069;51.164;-114.452;2024-01-30T10:58:50;3.63;;;1.92;;
65018;SDS011;66069;51.164;-114.452;2024-01-30T11:01:21;2.83;;;1.50;;
65018;SDS011;66069;51.164;-114.452;2024-01-30T11:03:50;3.03;;;1.50;;
65018;SDS011;66069;51.164;-114.452;2024-01-30T11:06:17;3.13;;;1.65;;
65018;SDS011;66069;51.164;-114.452;2024-01-30T11:08:44;3.55;;;1.67;;
65018;SDS011;66069;51.164;-114.452;2024-01-30T11:11:11;3.20;;;1.70;;
65018;SDS011;66069;51.164;-114.452;2024-01-30T11:13:37;3.45;;;1.60;;
65018;SDS011;66069;51.164;-114.452;2024-01-30T11:16:04;3.42;;;1.77;;
65018;SDS011;66069;51.164;-114.452;2024-01-30T11:18:31;3.97;;;1.67;;
65018;SDS011;66069;51.164;-114.452;2024-01-30T11:20:59;2.90;;;1.70;;
65018;SDS011;66069;51.164;-114.452;2024-01-30T11:23:27;3.45;;;1.73;;
65018;SDS011;66069;51.164;-114.452;2024-01-30T11:25:54;3.45;;;1.42;;
65018;SDS011;66069;51.164;-114.452;2024-01-30T11:28:21;3.78;;;1.73;;
65018;SDS011;66069;51.164;-114.452;2024-01-30T11:30:48;3.30;;;1.60;;
65018;SDS011;66069;51.164;-114.452;2024-01-30T11:33:29;3.03;;;1.50;;
65018;SDS011;66069;51.164;-114.452;2024-01-30T11:36:00;3.25;;;1.50;;
65018;SDS011;66069;51.164;-114.452;2024-01-30T11:38:32;3.05;;;1.50;;
65018;SDS011;66069;51.164;-114.452;2024-01-30T11:40:58;3.17;;;1.58;;
65018;SDS011;66069;51.164;-114.452;2024-01-30T11:43:26;3.00;;;1.42;;
65018;SDS011;66069;51.164;-114.452;2024-01-30T11:45:52;3.55;;;2.20;;
65018;SDS011;66069;51.164;-114.452;2024-01-30T11:48:18;2.63;;;1.38;;
65018;SDS011;66069;51.164;-114.452;2024-01-30T11:50:45;3.75;;;1.55;;
65018;SDS011;66069;51.164;-114.452;2024-01-30T11:53:12;2.80;;;1.35;;
65018;SDS011;66069;51.164;-114.452;2024-01-30T11:55:38;3.17;;;1.50;;
65018;SDS011;66069;51.164;-114.452;2024-01-30T11:58:04;3.30;;;1.63;;
65018;SDS011;66069;51.164;-114.452;2024-01-30T12:00:31;3.45;;;1.55;;
65018;SDS011;66069;51.164;-114.452;2024-01-30T12:02:58;3.08;;;1.60;;
65018;SDS011;66069;51.164;-114.452;2024-01-30T12:05:26;3.38;;;1.70;;
65018;SDS011;66069;51.164;-114.452;2024-01-30T12:07:53;3.60;;;1.63;;
65018;SDS011;66069;51.164;-114.452;2024-01-30T12:10:19;3.03;;;1.42;;
65018;SDS011;66069;51.164;-114.452;2024-01-30T12:12:47;3.35;;;1.60;;
65018;SDS011;66069;51.164;-114.452;2024-01-30T12:15:16;3.13;;;1.33;;
65018;SDS011;66069;51.164;-114.452;2024-01-30T12:17:42;3.90;;;1.55;;
65018;SDS011;66069;51.164;-114.452;2024-01-30T12:20:17;2.65;;;1.10;;
65018;SDS011;66069;51.164;-114.452;2024-01-30T12:22:44;3.10;;;1.30;;
65018;SDS011;66069;51.164;-114.452;2024-01-30T12:25:20;3.05;;;1.38;;
65018;SDS011;66069;51.164;-114.452;2024-01-30T12:27:52;4.15;;;1.70;;
65018;SDS011;66069;51.164;-114.452;2024-01-30T12:30:19;3.22;;;1.40;;
65018;SDS011;66069;51.164;-114.452;2024-01-30T12:32:47;3.38;;;1.48;;
65018;SDS011;66069;51.164;-114.452;2024-01-30T12:35:15;2.97;;;1.38;;
65018;SDS011;66069;51.164;-114.452;2024-01-30T12:40:13;2.53;;;1.05;;
65018;SDS011;66069;51.164;-114.452;2024-01-30T12:42:41;3.15;;;1.38;;
65018;SDS011;66069;51.164;-114.452;2024-01-30T12:45:25;2.63;;;1.42;;
65018;SDS011;66069;51.164;-114.452;2024-01-30T12:47:51;2.95;;;1.30;;
65018;SDS011;66069;51.164;-114.452;2024-01-30T12:50:18;2.20;;;1.10;;
65018;SDS011;66069;51.164;-114.452;2024-01-30T12:52:44;2.50;;;1.23;;
65018;SDS011;66069;51.164;-114.452;2024-01-30T12:55:11;2.88;;;1.20;;
65018;SDS011;66069;51.164;-114.452;2024-01-30T12:57:38;2.45;;;1.20;;
65018;SDS011;66069;51.164;-114.452;2024-01-30T13:00:05;2.40;;;1.25;;
65018;SDS011;66069;51.164;-114.452;2024-01-30T13:02:34;2.10;;;0.93;;
65018;SDS011;66069;51.164;-114.452;2024-01-30T13:05:05;2.42;;;1.02;;
65018;SDS011;66069;51.164;-114.452;2024-01-30T13:07:32;1.92;;;0.90;;
65018;SDS011;66069;51.164;-114.452;2024-01-30T13:09:58;2.22;;;0.95;;
65018;SDS011;66069;51.164;-114.452;2024-01-30T13:12:28;1.80;;;0.93;;
65018;SDS011;66069;51.164;-114.452;2024-01-30T13:14:54;2.40;;;0.90;;
65018;SDS011;66069;51.164;-114.452;2024-01-30T13:17:20;2.15;;;0.80;;
65018;SDS011;66069;51.164;-114.452;2024-01-30T13:19:47;2.13;;;1.00;;
65018;SDS011;66069;51.164;-114.452;2024-01-30T13:22:14;1.52;;;0.70;;
65018;SDS011;66069;51.164;-114.452;2024-01-30T13:24:41;1.40;;;0.65;;
65018;SDS011;66069;51.164;-114.452;2024-01-30T13:27:07;2.20;;;0.85;;
65018;SDS011;66069;51.164;-114.452;2024-01-30T13:29:34;1.50;;;0.70;;
65018;SDS011;66069;51.164;-114.452;2024-01-30T13:32:00;2.10;;;0.80;;
65018;SDS011;66069;51.164;-114.452;2024-01-30T13:34:26;1.67;;;0.80;;
65018;SDS011;66069;51.164;-114.452;2024-01-30T13:36:52;1.80;;;0.88;;
65018;SDS011;66069;51.164;-114.452;2024-01-30T13:39:18;1.77;;;0.70;;
65018;SDS011;66069;51.164;-114.452;2024-01-30T13:41:45;1.48;;;0.70;;
65018;SDS011;66069;51.164;-114.452;2024-01-30T13:44:11;1.63;;;0.70;;
65018;SDS011;66069;51.164;-114.452;2024-01-30T13:46:37;1.52;;;0.77;;
65018;SDS011;66069;51.164;-114.452;2024-01-30T13:49:04;2.25;;;0.90;;
65018;SDS011;66069;51.164;-114.452;2024-01-30T13:51:30;1.63;;;0.82;;
65018;SDS011;66069;51.164;-114.452;2024-01-30T13:53:56;1.77;;;0.77;;
65018;SDS011;66069;51.164;-114.452;2024-01-30T13:56:23;1.35;;;0.70;;
65018;SDS011;66069;51.164;-114.452;2024-01-30T13:58:50;1.55;;;0.70;;
65018;SDS011;66069;51.164;-114.452;2024-01-30T14:01:16;1.75;;;0.90;;
65018;SDS011;66069;51.164;-114.452;2024-01-30T14:03:42;1.40;;;0.70;;
65018;SDS011;66069;51.164;-114.452;2024-01-30T14:06:08;1.98;;;0.80;;
65018;SDS011;66069;51.164;-114.452;2024-01-30T14:08:35;1.92;;;0.73;;
65018;SDS011;66069;51.164;-114.452;2024-01-30T14:11:01;1.15;;;0.60;;
65018;SDS011;66069;51.164;-114.452;2024-01-30T14:13:28;1.85;;;0.75;;
65018;SDS011;66069;51.164;-114.452;2024-01-30T14:15:56;1.48;;;0.70;;
65018;SDS011;66069;51.164;-114.452;2024-01-30T14:18:22;1.05;;;0.60;;